»·PEaware :: UAL9010 KSFO-KLAS

UAL9010 :: KSFO-KLAS

FLIGHT INFORMATION

Flight Status: Arrived
Operator:
United Airlines
More flights by this operator :: More flights under this callsign
Pilot: Skye D. (10623)
Aircraft: BOEING 767-300
(B763)
More flights by this aircraft type
Origin: KSFO San Francisco Intl
United States
Destination: KLAS McCarran Intl
United States
More flights between these airports :: More routes between these airports
Route: +SSTIK3 NTELL Q162 ESSAA BTY SUNST4
File this flight plan on PilotEdge
Remarks:
Altitude:
(Current/Filed)
35,000ft
Speed:
(Current/Filed)
470kts
Departed: 10-Mar-18 11:24 AM
Arrived: 10-Mar-18 12:32 PM
Distance/Time
Traveled:
359nm/1:08
Distance/Time
To Go:
Arrived

Flight Plot

Page will automatically refresh every two minutes.

Flight plan parsing failed; only flown route is shown


Map Options




Map Legend


Flown Route
Filed Route
Departure Airport
Arrival Airport
Navaid (VOR, NDB)
Fix

Horizontal Profiles

Position Reports

Time Latitude Longitude Heading Altitude Ground
Speed
10-Mar-18 10:49 37.619166 -122.383451 291 24ft 0kts
10-Mar-18 10:50 37.619166 -122.383451 291 24ft 0kts
10-Mar-18 10:51 37.619166 -122.383451 291 24ft 0kts
10-Mar-18 10:52 37.619166 -122.383451 291 24ft 0kts
10-Mar-18 10:53 37.619166 -122.383451 291 24ft 0kts
10-Mar-18 10:54 37.619166 -122.383451 291 24ft 0kts
10-Mar-18 10:55 37.619166 -122.383451 291 24ft 0kts
10-Mar-18 10:56 37.619166 -122.383451 291 24ft 0kts
10-Mar-18 10:57 37.619166 -122.383451 291 24ft 0kts
10-Mar-18 10:58 37.619166 -122.383451 291 24ft 0kts
10-Mar-18 10:59 37.619166 -122.383451 291 24ft 0kts
10-Mar-18 11:00 37.619166 -122.383451 291 24ft 0kts
10-Mar-18 11:01 37.619166 -122.383451 291 24ft 0kts
10-Mar-18 11:02 37.619166 -122.383451 291 24ft 0kts
10-Mar-18 11:03 37.619166 -122.383451 291 24ft 0kts
10-Mar-18 11:04 37.619166 -122.383451 291 24ft 0kts
10-Mar-18 11:05 37.619166 -122.383451 291 24ft 0kts
10-Mar-18 11:06 37.619166 -122.383451 291 24ft 0kts
10-Mar-18 11:07 37.619166 -122.383451 291 24ft 0kts
10-Mar-18 11:08 37.619166 -122.383451 291 24ft 0kts
10-Mar-18 11:09 37.619166 -122.383451 291 24ft 0kts
10-Mar-18 11:10 37.619080 -122.383267 316 24ft 2kts
10-Mar-18 11:11 37.618597 -122.383150 26 24ft 2kts
10-Mar-18 11:12 37.619106 -122.382804 28 24ft 3kts
10-Mar-18 11:13 37.619196 -122.382745 27 24ft 0kts
10-Mar-18 11:14 37.619196 -122.382745 27 24ft 0kts
10-Mar-18 11:15 37.619196 -122.382745 27 24ft 0kts
10-Mar-18 11:16 37.619196 -122.382745 27 24ft 0kts
10-Mar-18 11:17 37.618943 -122.380455 131 24ft 13kts
10-Mar-18 11:18 37.616375 -122.379769 209 24ft 10kts
10-Mar-18 11:19 37.612126 -122.382635 208 24ft 20kts
10-Mar-18 11:20 37.609759 -122.384119 181 24ft 11kts
10-Mar-18 11:21 37.609230 -122.383671 127 24ft 1kts
10-Mar-18 11:22 37.608902 -122.382282 29 24ft 0kts
10-Mar-18 11:23 37.626539 -122.370403 27 269ft 157kts
10-Mar-18 11:24 37.663841 -122.363019 356 2168ft 164kts
10-Mar-18 11:25 37.693037 -122.382877 257 3885ft 162kts
10-Mar-18 11:26 37.659511 -122.408602 202 5014ft 213kts
10-Mar-18 11:27 37.606260 -122.430012 199 6962ft 259kts
10-Mar-18 11:28 37.548155 -122.453531 199 9839ft 268kts
10-Mar-18 11:29 37.472939 -122.458613 157 10945ft 357kts
10-Mar-18 11:30 37.416717 -122.364640 114 13554ft 392kts
10-Mar-18 11:31 37.395132 -122.252385 105 15765ft 413kts
10-Mar-18 11:32 37.373404 -122.141415 106 17813ft 427kts
10-Mar-18 11:33 37.350692 -122.022025 107 19745ft 442kts
10-Mar-18 11:34 37.325569 -121.898657 108 21567ft 454kts
10-Mar-18 11:35 37.297289 -121.762448 110 23382ft 466kts
10-Mar-18 11:36 37.265236 -121.606673 109 25011ft 484kts
10-Mar-18 11:37 37.232700 -121.448608 110 26181ft 508kts
10-Mar-18 11:38 37.201236 -121.295305 110 27513ft 523kts
10-Mar-18 11:39 37.169988 -121.137085 110 28690ft 536kts
10-Mar-18 11:40 37.133912 -120.965543 111 30164ft 541kts
10-Mar-18 11:41 37.098351 -120.800677 111 31833ft 538kts
10-Mar-18 11:42 37.062255 -120.631167 111 33352ft 536kts
10-Mar-18 11:43 37.025334 -120.456494 111 34802ft 532kts
10-Mar-18 11:44 36.988872 -120.286036 112 35022ft 529kts
10-Mar-18 11:45 36.949701 -120.110100 113 35028ft 530kts
10-Mar-18 11:46 36.915532 -119.938878 102 35029ft 539kts
10-Mar-18 11:47 36.930308 -119.779557 71 35037ft 555kts
10-Mar-18 11:48 36.987672 -119.624983 66 35038ft 558kts
10-Mar-18 11:49 37.043269 -119.457070 69 35040ft 558kts
10-Mar-18 11:50 37.098153 -119.283783 68 35026ft 558kts
10-Mar-18 11:51 37.153423 -119.111896 68 35045ft 557kts
10-Mar-18 11:52 37.207592 -118.941884 68 35079ft 557kts
10-Mar-18 11:53 37.264107 -118.762871 71 35039ft 557kts
10-Mar-18 11:54 37.290455 -118.577095 86 35024ft 556kts
10-Mar-18 11:55 37.308134 -118.385187 86 35026ft 556kts
10-Mar-18 11:56 37.325522 -118.195692 86 35014ft 556kts
10-Mar-18 11:57 37.342428 -118.002901 86 35016ft 556kts
10-Mar-18 11:58 37.343855 -117.811294 100 35026ft 548kts
10-Mar-18 11:59 37.327336 -117.621556 101 35022ft 548kts
10-Mar-18 12:00 37.310241 -117.433986 101 35014ft 534kts
10-Mar-18 12:01 37.270962 -117.260472 129 34328ft 514kts
10-Mar-18 12:02 37.185539 -117.122417 136 31876ft 502kts
10-Mar-18 12:03 37.100592 -116.984520 135 29604ft 503kts
10-Mar-18 12:04 36.995653 -116.884234 157 27473ft 463kts
10-Mar-18 12:05 36.886697 -116.807612 157 25531ft 447kts
10-Mar-18 12:06 36.785268 -116.722953 138 23753ft 448kts
10-Mar-18 12:07 36.702790 -116.606870 136 23066ft 448kts
10-Mar-18 12:08 36.621434 -116.490936 136 22297ft 442kts
10-Mar-18 12:09 36.540718 -116.376988 136 21524ft 436kts
10-Mar-18 12:10 36.461707 -116.265018 136 20756ft 430kts
10-Mar-18 12:11 36.383962 -116.155446 136 18974ft 417kts
10-Mar-18 12:12 36.308477 -116.049782 135 17273ft 403kts
10-Mar-18 12:13 36.236287 -115.948888 135 15991ft 378kts
10-Mar-18 12:14 36.184940 -115.847870 116 15983ft 335kts
10-Mar-18 12:15 36.150494 -115.742101 115 15999ft 334kts
10-Mar-18 12:16 36.116635 -115.637286 115 16000ft 334kts
10-Mar-18 12:17 36.082348 -115.531469 114 15180ft 339kts
10-Mar-18 12:18 36.049748 -115.431121 113 12316ft 310kts
10-Mar-18 12:19 36.029625 -115.339683 97 10516ft 277kts
10-Mar-18 12:20 36.022897 -115.247985 96 9505ft 272kts
10-Mar-18 12:21 36.017184 -115.167565 96 6835ft 261kts
10-Mar-18 12:21 36.012390 -115.097171 97 6034ft 248kts
10-Mar-18 12:23 36.007321 -115.009694 89 5443ft 248kts
10-Mar-18 12:24 36.014689 -114.933519 75 4464ft 248kts
10-Mar-18 12:25 36.065298 -114.913976 335 3999ft 206kts
10-Mar-18 12:26 36.077132 -114.956063 260 4136ft 186kts
10-Mar-18 12:27 36.074081 -115.008627 268 3988ft 164kts
10-Mar-18 12:28 36.073680 -115.060101 271 3189ft 141kts
10-Mar-18 12:29 36.073532 -115.091243 270 2737ft 133kts
10-Mar-18 12:30 36.073681 -115.131994 270 2158ft 131kts
10-Mar-18 12:31 36.073876 -115.152869 289 2152ft 30kts
10-Mar-18 12:32 36.075049 -115.155780 303 2152ft 0kts
10-Mar-18 12:33 36.077063 -115.158091 335 2152ft 14kts
10-Mar-18 12:34 36.077230 -115.158152 354 2152ft 0kts
10-Mar-18 12:35 36.078014 -115.155535 90 2152ft 23kts
10-Mar-18 12:36 36.077915 -115.149121 88 2152ft 22kts
10-Mar-18 12:37 36.078374 -115.144933 93 2152ft 20kts
10-Mar-18 12:38 36.080265 -115.141618 2 2152ft 14kts
10-Mar-18 12:39 36.082026 -115.140235 46 2152ft 4kts
10-Mar-18 12:40 36.082144 -115.140083 46 2152ft 0kts
10-Mar-18 12:41 36.082144 -115.140083 46 2152ft 0kts

Navigation Log

Ident Type
Flight plan parsing failed, navigation log unavailable